Time;durP1;ratioP1;P1;durP2;ratioP2;P2;SDS_P1;SDS_P2;PMS_P1;PMS_P2;Temp;Humidity;BMP_temperature;BMP_pressure;BME280_temperature;BME280_humidity;BME280_pressure;Samples;Min_cycle;Max_cycle;Signal;HPM_P1;HPM_P2
2022/10/27 00:01:36;;;;;;;0.60;0.50;;;12.00;99.90;;;;;;4912141;29;20044;-81
2022/10/27 00:04:02;;;;;;;1.08;0.47;;;12.30;99.90;;;;;;4907063;29;20044;-82
2022/10/27 00:06:27;;;;;;;0.77;0.60;;;12.60;99.90;;;;;;4882397;29;20051;-81
2022/10/27 00:08:53;;;;;;;1.00;0.60;;;12.10;99.90;;;;;;4897691;29;20048;-80
2022/10/27 00:11:19;;;;;;;0.88;0.50;;;12.10;99.90;;;;;;4867674;29;20055;-80
2022/10/27 00:13:45;;;;;;;0.50;0.50;;;12.40;99.90;;;;;;4898265;29;20180;-80
2022/10/27 00:16:16;;;;;;;1.02;0.52;;;12.00;99.90;;;;;;4918754;29;20586;-80
2022/10/27 00:18:43;;;;;;;0.60;0.50;;;12.40;99.90;;;;;;4915289;29;20094;-81
2022/10/27 00:21:15;;;;;;;1.17;0.40;;;12.50;99.90;;;;;;4884523;29;20119;-81
2022/10/27 00:23:42;;;;;;;0.60;0.32;;;11.90;99.90;;;;;;4897823;29;20139;-81
2022/10/27 00:26:12;;;;;;;0.55;0.50;;;12.20;99.90;;;;;;4897872;29;20052;-81
2022/10/27 00:28:38;;;;;;;0.60;0.50;;;11.90;99.90;;;;;;4903531;29;20048;-80
2022/10/27 00:31:09;;;;;;;1.02;0.40;;;12.60;99.90;;;;;;4902309;29;20122;-81
2022/10/27 00:33:34;;;;;;;1.58;0.68;;;12.40;99.90;;;;;;4886395;29;20052;-81
2022/10/27 00:36:09;;;;;;;1.05;0.50;;;12.40;99.90;;;;;;4898386;29;20055;-81
2022/10/27 00:38:36;;;;;;;1.00;0.70;;;11.90;99.90;;;;;;4896259;29;20072;-80
2022/10/27 00:41:04;;;;;;;0.50;0.40;;;12.50;99.90;;;;;;4900342;29;20051;-81
2022/10/27 00:43:36;;;;;;;0.90;0.50;;;11.90;99.90;;;;;;4895047;29;20048;-80
2022/10/27 00:46:20;;;;;;;0.50;0.30;;;11.90;99.90;;;;;;4897025;29;20043;-80
2022/10/27 00:48:50;;;;;;;0.60;0.45;;;12.60;99.90;;;;;;4898484;29;20040;-81
2022/10/27 00:51:17;;;;;;;0.35;0.30;;;12.30;99.90;;;;;;4898868;29;20044;-81
2022/10/27 00:53:45;;;;;;;1.48;0.40;;;12.10;99.90;;;;;;4897199;29;20528;-81
2022/10/27 00:56:11;;;;;;;0.80;0.40;;;12.60;99.90;;;;;;4910333;29;20048;-81
2022/10/27 00:58:37;;;;;;;0.93;0.60;;;12.40;99.90;;;;;;4884341;29;20059;-81
2022/10/27 01:01:03;;;;;;;0.82;0.40;;;12.00;99.90;;;;;;4898345;29;20066;-81
2022/10/27 01:03:31;;;;;;;0.47;0.47;;;12.30;99.90;;;;;;4898197;29;20048;-81
2022/10/27 01:05:57;;;;;;;0.70;0.47;;;12.00;99.90;;;;;;4914013;29;20052;-80
2022/10/27 01:08:23;;;;;;;0.88;0.45;;;11.90;99.90;;;;;;4879740;29;20614;-80
2022/10/27 01:10:50;;;;;;;0.93;0.55;;;12.10;99.90;;;;;;4898013;29;20040;-81
2022/10/27 01:13:17;;;;;;;0.90;0.47;;;12.60;99.90;;;;;;4913591;29;20373;-80
2022/10/27 01:15:55;;;;;;;0.73;0.50;;;12.60;99.90;;;;;;4886508;29;20056;-81
2022/10/27 01:18:33;;;;;;;0.40;0.40;;;11.90;99.90;;;;;;4904609;29;20051;-81
2022/10/27 01:21:23;;;;;;;0.65;0.50;;;12.30;99.90;;;;;;4904270;29;20396;-81
2022/10/27 01:24:17;;;;;;;0.30;0.30;;;12.20;99.90;;;;;;4885182;29;20572;-81
2022/10/27 01:26:42;;;;;;;0.35;0.35;;;12.70;99.90;;;;;;4916363;29;20131;-81
2022/10/27 01:29:14;;;;;;;1.55;0.38;;;12.10;99.90;;;;;;4898240;29;20566;-81
2022/10/27 01:31:51;;;;;;;0.68;0.45;;;12.70;99.90;;;;;;4915937;29;20407;-82
2022/10/27 01:34:52;;;;;;;0.35;0.30;;;12.60;99.90;;;;;;4900097;29;20404;-81
2022/10/27 01:37:20;;;;;;;0.57;0.45;;;11.90;99.90;;;;;;4887514;29;20055;-81
2022/10/27 01:40:01;;;;;;;0.47;0.40;;;12.00;99.90;;;;;;4900072;29;20032;-81
2022/10/27 01:42:35;;;;;;;1.50;0.55;;;12.30;99.90;;;;;;4900565;29;20071;-81
2022/10/27 01:45:03;;;;;;;0.30;0.30;;;12.40;99.90;;;;;;4899064;29;20135;-80
2022/10/27 01:47:30;;;;;;;0.55;0.40;;;11.90;99.90;;;;;;4867653;29;20441;-82
2022/10/27 01:49:55;;;;;;;1.15;0.60;;;12.20;99.90;;;;;;4904581;29;20055;-81
2022/10/27 01:52:48;;;;;;;0.60;0.43;;;12.00;99.90;;;;;;4915973;29;20044;-81
2022/10/27 01:55:26;;;;;;;1.85;0.75;;;12.80;99.90;;;;;;4900248;29;20084;-81
2022/10/27 01:58:17;;;;;;;1.25;0.80;;;12.80;99.90;;;;;;4898336;29;20040;-81
2022/10/27 02:01:11;;;;;;;1.10;0.70;;;12.10;99.90;;;;;;4907563;29;20353;-81
2022/10/27 02:03:49;;;;;;;1.70;0.88;;;12.10;99.90;;;;;;4882737;29;20110;-80
2022/10/27 02:06:30;;;;;;;0.88;0.50;;;13.00;99.90;;;;;;4899578;29;20043;-81
2022/10/27 02:09:09;;;;;;;0.77;0.50;;;12.10;99.90;;;;;;4901380;29;20048;-80
2022/10/27 02:11:38;;;;;;;0.85;0.70;;;12.90;99.90;;;;;;4917011;29;20079;-81
2022/10/27 02:14:05;;;;;;;0.70;0.70;;;12.90;99.90;;;;;;4897077;29;20048;-81
2022/10/27 02:16:36;;;;;;;1.63;1.00;;;12.10;99.90;;;;;;4899414;29;20099;-80
2022/10/27 02:19:12;;;;;;;1.38;0.82;;;13.00;99.90;;;;;;4883920;29;20059;-81
2022/10/27 02:21:40;;;;;;;1.30;1.05;;;12.20;99.90;;;;;;4900648;29;20058;-81
2022/10/27 02:24:07;;;;;;;1.00;0.70;;;13.00;99.90;;;;;;4915561;29;20091;-81
2022/10/27 02:26:45;;;;;;;;;;;12.20;99.90;;;;;;4890054;29;20048;-81
2022/10/27 02:29:35;;;;;;;1.20;1.00;;;12.80;99.90;;;;;;4899044;29;19975;-81
2022/10/27 02:32:05;;;;;;;1.75;0.73;;;12.80;99.90;;;;;;4907195;29;20099;-81
2022/10/27 02:34:32;;;;;;;0.90;0.73;;;12.90;99.90;;;;;;4902715;29;20143;-81
2022/10/27 02:36:58;;;;;;;1.20;0.75;;;12.10;99.90;;;;;;4899892;29;20040;-81
2022/10/27 02:39:23;;;;;;;;;;;12.20;99.90;;;;;;4900489;29;20048;-81
2022/10/27 02:41:49;;;;;;;1.42;1.00;;;12.40;99.90;;;;;;4899211;29;19919;-81
2022/10/27 02:44:15;;;;;;;2.22;1.08;;;12.60;99.90;;;;;;4898656;29;20048;-81
2022/10/27 02:46:41;;;;;;;1.58;1.10;;;13.10;99.90;;;;;;4882074;29;20041;-81
2022/10/27 02:49:07;;;;;;;1.75;0.82;;;13.10;99.90;;;;;;4902754;29;20068;-81
2022/10/27 02:51:32;;;;;;;0.70;0.63;;;13.10;99.90;;;;;;4916388;29;20075;-81
2022/10/27 02:53:58;;;;;;;2.70;1.25;;;12.90;99.90;;;;;;4898539;29;20075;-81
2022/10/27 02:56:24;;;;;;;0.80;0.70;;;12.20;99.90;;;;;;4900086;29;20056;-81
2022/10/27 02:58:49;;;;;;;1.35;0.80;;;13.00;99.90;;;;;;4901056;29;20048;-81
2022/10/27 03:01:15;;;;;;;0.93;0.70;;;12.30;99.90;;;;;;4893496;29;20049;-81
2022/10/27 03:03:41;;;;;;;0.80;0.60;;;12.20;99.90;;;;;;4897520;29;20048;-81
2022/10/27 03:06:06;;;;;;;1.33;0.80;;;12.80;99.90;;;;;;4899509;29;20051;-82
2022/10/27 03:08:32;;;;;;;1.00;0.90;;;12.70;99.90;;;;;;4901329;29;20059;-82
2022/10/27 03:10:58;;;;;;;1.13;0.73;;;12.20;99.90;;;;;;4898951;29;20036;-81
2022/10/27 03:13:23;;;;;;;1.23;0.70;;;12.90;99.90;;;;;;4899930;29;20055;-82
2022/10/27 03:15:49;;;;;;;1.42;0.75;;;13.10;99.90;;;;;;4899209;29;20086;-82
2022/10/27 03:18:15;;;;;;;1.20;0.82;;;12.90;99.90;;;;;;4898161;29;20051;-81
2022/10/27 03:20:40;;;;;;;1.52;1.00;;;13.10;99.90;;;;;;4900150;29;20051;-82
2022/10/27 03:23:06;;;;;;;0.68;0.68;;;12.20;99.90;;;;;;4899790;29;20052;-81
2022/10/27 03:25:32;;;;;;;0.63;0.50;;;12.30;99.90;;;;;;4899293;29;20063;-81
2022/10/27 03:27:57;;;;;;;0.88;0.60;;;13.00;99.90;;;;;;4913589;29;20056;-81
2022/10/27 03:30:23;;;;;;;0.88;0.70;;;12.30;99.90;;;;;;4900067;29;20051;-80
2022/10/27 03:32:50;;;;;;;0.40;0.40;;;13.00;99.90;;;;;;4914578;29;20047;-81
2022/10/27 03:35:18;;;;;;;1.00;0.70;;;13.20;99.90;;;;;;4899901;29;20083;-81
2022/10/27 03:37:44;;;;;;;1.65;0.90;;;13.20;99.90;;;;;;4877691;29;20048;-80
2022/10/27 03:40:10;;;;;;;1.48;0.90;;;13.20;99.90;;;;;;4874933;29;20390;-81
2022/10/27 03:42:41;;;;;;;1.50;0.90;;;12.40;99.90;;;;;;4880716;29;20055;-80
2022/10/27 03:45:11;;;;;;;1.10;0.90;;;12.60;99.90;;;;;;4892634;29;20131;-80
2022/10/27 03:47:36;;;;;;;0.70;0.60;;;12.60;99.90;;;;;;4899971;29;20066;-80
2022/10/27 03:50:02;;;;;;;1.88;0.77;;;13.20;99.90;;;;;;4898786;29;20497;-81
2022/10/27 03:52:28;;;;;;;1.20;1.00;;;13.30;99.90;;;;;;4900250;29;20055;-80
2022/10/27 03:54:53;;;;;;;1.73;0.85;;;12.40;99.90;;;;;;4897019;29;20396;-81
2022/10/27 03:57:19;;;;;;;2.20;1.15;;;13.40;99.90;;;;;;4911185;29;20093;-81
2022/10/27 03:59:45;;;;;;;0.60;0.60;;;13.40;99.90;;;;;;4899346;29;20054;-81
2022/10/27 04:02:10;;;;;;;1.42;0.70;;;13.40;99.90;;;;;;4898421;29;20063;-81
2022/10/27 04:04:36;;;;;;;0.93;0.77;;;13.00;99.90;;;;;;4913033;29;20059;-81
2022/10/27 04:07:02;;;;;;;0.90;0.70;;;12.50;99.90;;;;;;4918982;29;20071;-82
2022/10/27 04:09:27;;;;;;;1.15;0.70;;;12.90;99.90;;;;;;4884862;29;20112;-82
2022/10/27 04:11:53;;;;;;;1.42;0.70;;;12.60;99.90;;;;;;4887893;29;20044;-80
2022/10/27 04:14:19;;;;;;;1.27;0.98;;;13.40;99.90;;;;;;4876885;29;20043;-81
2022/10/27 04:16:50;;;;;;;1.55;1.00;;;13.10;99.90;;;;;;4913945;29;20139;-82
2022/10/27 04:19:19;;;;;;;1.42;1.08;;;12.50;99.90;;;;;;4896329;29;20100;-83
2022/10/27 04:21:45;;;;;;;1.40;0.88;;;13.30;99.90;;;;;;4889361;29;20044;-83
2022/10/27 04:24:12;;;;;;;1.55;0.85;;;12.40;99.90;;;;;;4900657;29;20060;-84
2022/10/27 04:26:38;;;;;;;1.20;0.90;;;12.40;99.90;;;;;;4901711;29;20056;-83
2022/10/27 04:29:04;;;;;;;2.00;1.30;;;12.40;99.90;;;;;;4909056;29;20044;-83
2022/10/27 04:31:29;;;;;;;1.33;1.08;;;13.30;99.90;;;;;;4889870;29;20044;-83
2022/10/27 04:33:55;;;;;;;2.53;1.38;;;12.70;99.90;;;;;;4900840;29;20040;-83
2022/10/27 04:36:21;;;;;;;1.20;1.10;;;12.40;99.90;;;;;;4900982;29;20044;-83
2022/10/27 04:38:49;;;;;;;1.92;1.05;;;13.10;99.90;;;;;;4887722;29;20052;-83
2022/10/27 04:41:15;;;;;;;1.38;0.90;;;12.80;99.90;;;;;;4877448;29;20047;-83
2022/10/27 04:43:41;;;;;;;1.23;0.82;;;13.10;99.90;;;;;;4904564;29;20103;-83
2022/10/27 04:46:06;;;;;;;2.17;1.40;;;13.30;99.90;;;;;;4890081;29;20048;-82
2022/10/27 04:48:32;;;;;;;1.58;1.15;;;12.70;99.90;;;;;;4887307;29;20144;-82
2022/10/27 04:50:58;;;;;;;0.88;0.82;;;12.30;99.90;;;;;;4888193;29;20055;-83
2022/10/27 04:53:23;;;;;;;1.73;0.90;;;13.20;99.90;;;;;;4903486;29;20130;-83
2022/10/27 04:55:51;;;;;;;1.30;1.00;;;12.30;99.90;;;;;;4903248;29;20040;-83
2022/10/27 04:58:17;;;;;;;1.20;0.98;;;13.10;99.90;;;;;;4903086;29;20064;-83
2022/10/27 05:00:43;;;;;;;2.40;1.20;;;13.30;99.90;;;;;;4870811;29;20476;-83
2022/10/27 05:03:09;;;;;;;1.70;1.15;;;12.70;99.90;;;;;;4875249;29;20050;-83
2022/10/27 05:05:35;;;;;;;1.80;1.23;;;13.10;99.90;;;;;;4904368;29;20047;-83
2022/10/27 05:08:02;;;;;;;1.52;0.90;;;13.20;99.90;;;;;;4890539;29;20365;-84
2022/10/27 05:10:29;;;;;;;1.00;0.90;;;13.20;99.90;;;;;;4905713;29;20126;-80
2022/10/27 05:12:55;;;;;;;1.65;1.20;;;12.20;99.90;;;;;;4890181;29;20365;-84
2022/10/27 05:15:21;;;;;;;2.55;1.00;;;12.60;99.90;;;;;;4907522;29;20059;-80
2022/10/27 05:17:47;;;;;;;;;;;12.20;99.90;;;;;;4923590;29;20474;-80
2022/10/27 05:20:13;;;;;;;1.00;0.80;;;12.90;99.90;;;;;;4903317;29;19919;-80
2022/10/27 05:22:39;;;;;;;0.80;0.80;;;13.20;99.90;;;;;;4904130;29;20044;-80
2022/10/27 05:25:06;;;;;;;1.00;0.80;;;12.50;99.90;;;;;;4938349;29;20071;-82
2022/10/27 05:27:32;;;;;;;1.13;0.85;;;13.10;99.90;;;;;;4912037;29;20044;-82
2022/10/27 05:29:58;;;;;;;1.38;1.05;;;12.30;99.90;;;;;;4917057;29;20032;-81
2022/10/27 05:32:24;;;;;;;1.75;1.00;;;12.20;99.90;;;;;;4903933;29;20044;-82
2022/10/27 05:34:49;;;;;;;1.15;0.90;;;12.30;99.90;;;;;;4895539;29;20051;-81
2022/10/27 05:37:15;;;;;;;1.25;0.80;;;12.20;99.90;;;;;;4909626;29;20107;-80
2022/10/27 05:39:41;;;;;;;2.33;1.02;;;12.30;99.90;;;;;;4900675;29;20527;-81
2022/10/27 05:42:06;;;;;;;2.15;1.10;;;13.20;99.90;;;;;;4897908;29;20079;-80
2022/10/27 05:44:32;;;;;;;1.70;1.00;;;13.00;99.90;;;;;;4898840;29;20052;-80
2022/10/27 05:46:58;;;;;;;1.83;1.10;;;13.20;99.90;;;;;;4900094;29;20048;-81
2022/10/27 05:49:23;;;;;;;1.38;1.10;;;12.70;99.90;;;;;;4899842;29;20099;-81
2022/10/27 05:51:50;;;;;;;1.58;0.90;;;13.20;99.90;;;;;;4883067;29;20076;-81
2022/10/27 05:54:16;;;;;;;0.80;0.80;;;13.20;99.90;;;;;;4897412;29;20499;-80
2022/10/27 05:56:41;;;;;;;1.40;0.98;;;13.10;99.90;;;;;;4899641;29;20048;-79
2022/10/27 05:59:09;;;;;;;1.05;0.80;;;12.40;99.90;;;;;;4898711;29;20040;-80
2022/10/27 06:01:34;;;;;;;1.58;1.00;;;13.20;99.90;;;;;;4908383;29;20043;-79
2022/10/27 06:04:00;;;;;;;1.27;0.90;;;12.70;99.90;;;;;;4898496;29;20123;-79
2022/10/27 06:06:26;;;;;;;1.75;1.40;;;12.70;99.90;;;;;;4900564;29;20048;-82
2022/10/27 06:08:52;;;;;;;2.88;1.85;;;13.30;99.90;;;;;;4892267;29;20040;-81
2022/10/27 06:11:17;;;;;;;2.30;1.70;;;13.30;99.90;;;;;;4884867;29;20040;-83
2022/10/27 06:13:43;;;;;;;2.30;1.60;;;13.40;99.90;;;;;;4882867;29;20183;-80
2022/10/27 06:16:09;;;;;;;2.17;1.70;;;12.70;99.90;;;;;;4898900;29;20055;-80
2022/10/27 06:18:34;;;;;;;3.38;1.80;;;12.90;99.90;;;;;;4882768;29;20057;-81
2022/10/27 06:21:00;;;;;;;2.85;1.80;;;13.00;99.90;;;;;;4898202;29;20049;-82
2022/10/27 06:23:26;;;;;;;2.50;1.63;;;13.20;99.90;;;;;;4878758;29;20052;-81
2022/10/27 06:25:55;;;;;;;2.80;2.00;;;13.40;99.90;;;;;;4878607;29;20049;-81
2022/10/27 06:28:21;;;;;;;2.42;1.88;;;13.40;99.90;;;;;;4895425;29;20057;-79
2022/10/27 06:30:47;;;;;;;1.85;1.50;;;13.30;99.90;;;;;;4879449;29;20052;-81
2022/10/27 06:33:13;;;;;;;2.45;1.60;;;12.80;99.90;;;;;;4879760;29;20041;-81
2022/10/27 06:35:38;;;;;;;3.47;1.73;;;13.30;99.90;;;;;;4863431;29;20072;-81
2022/10/27 06:38:04;;;;;;;2.72;2.05;;;13.00;99.90;;;;;;4896372;29;20092;-81
2022/10/27 06:40:30;;;;;;;2.33;1.80;;;13.40;99.90;;;;;;4864698;29;20441;-81
2022/10/27 06:42:55;;;;;;;3.28;1.90;;;12.50;99.90;;;;;;4871887;29;20048;-82
2022/10/27 06:45:21;;;;;;;2.17;1.73;;;12.80;99.90;;;;;;4915738;29;20044;-80
2022/10/27 06:48:00;;;;;;;3.10;1.92;;;13.50;99.90;;;;;;4916107;29;20048;-81
2022/10/27 06:50:26;;;;;;;3.30;1.80;;;12.50;99.90;;;;;;4916301;29;20095;-82
2022/10/27 06:52:52;;;;;;;2.92;2.00;;;13.50;99.90;;;;;;4915733;29;20044;-81
2022/10/27 06:55:18;;;;;;;2.60;1.95;;;12.70;99.90;;;;;;4900586;29;20460;-81
2022/10/27 06:57:44;;;;;;;2.70;1.90;;;13.30;99.90;;;;;;4884931;29;20054;-81
2022/10/27 07:00:11;;;;;;;2.50;1.70;;;12.80;99.90;;;;;;4900593;29;20504;-81
2022/10/27 07:02:36;;;;;;;3.03;2.33;;;13.30;99.90;;;;;;4899923;29;20048;-82
2022/10/27 07:05:03;;;;;;;2.53;1.85;;;12.70;99.90;;;;;;4916394;29;20047;-82
2022/10/27 07:07:29;;;;;;;2.10;1.60;;;13.30;99.90;;;;;;4900608;29;20044;-82
2022/10/27 07:09:55;;;;;;;2.58;1.85;;;12.80;99.90;;;;;;4915285;29;20411;-82
2022/10/27 07:12:20;;;;;;;2.40;1.30;;;13.70;99.90;;;;;;4899265;29;20115;-82
2022/10/27 07:14:46;;;;;;;1.88;1.60;;;13.40;99.90;;;;;;4915693;29;20036;-82
2022/10/27 07:17:12;;;;;;;1.80;1.40;;;13.80;99.90;;;;;;4900158;29;20123;-83
2022/10/27 07:19:37;;;;;;;2.15;1.45;;;13.80;99.90;;;;;;4900479;29;20040;-82
2022/10/27 07:22:03;;;;;;;2.08;1.75;;;13.50;99.90;;;;;;4916414;29;20139;-82
2022/10/27 07:24:29;;;;;;;2.00;1.70;;;13.40;99.90;;;;;;4896265;29;20049;-82
2022/10/27 07:26:54;;;;;;;2.13;1.60;;;14.00;99.90;;;;;;4881487;29;20044;-81
2022/10/27 07:29:20;;;;;;;1.95;1.50;;;13.20;99.90;;;;;;4881088;29;20552;-82
2022/10/27 07:31:46;;;;;;;1.30;1.20;;;14.10;99.90;;;;;;4881324;29;20037;-82
2022/10/27 07:34:12;;;;;;;1.10;1.00;;;14.10;99.90;;;;;;4881880;29;20123;-82
2022/10/27 07:36:38;;;;;;;1.77;1.23;;;13.60;99.90;;;;;;4883329;29;20131;-82
2022/10/27 07:39:04;;;;;;;1.45;1.20;;;13.40;99.90;;;;;;4900606;29;20115;-82
2022/10/27 07:41:30;;;;;;;0.93;0.90;;;14.20;99.90;;;;;;4899863;29;20044;-82
2022/10/27 07:43:56;;;;;;;1.15;0.90;;;14.00;99.90;;;;;;4916034;29;20508;-82
2022/10/27 07:46:22;;;;;;;1.20;1.08;;;13.80;99.90;;;;;;4900115;29;20122;-82
2022/10/27 07:48:47;;;;;;;1.98;1.10;;;14.40;99.90;;;;;;4915453;29;20054;-82
2022/10/27 07:51:13;;;;;;;1.50;1.25;;;13.70;99.90;;;;;;4915132;29;20067;-82
2022/10/27 07:53:39;;;;;;;1.98;1.40;;;13.70;99.90;;;;;;4898946;29;20040;-80
2022/10/27 07:56:05;;;;;;;2.28;1.30;;;13.80;99.90;;;;;;4915152;29;20131;-81
2022/10/27 07:58:30;;;;;;;1.48;1.20;;;14.50;99.90;;;;;;4914922;29;20183;-81
2022/10/27 08:00:58;;;;;;;2.20;1.25;;;14.40;99.90;;;;;;4899114;29;20044;-81
2022/10/27 08:03:27;;;;;;;2.13;1.48;;;14.50;99.90;;;;;;4915197;29;20107;-82
2022/10/27 08:05:53;;;;;;;3.53;2.08;;;14.70;99.90;;;;;;4914879;29;20051;-81
2022/10/27 08:08:18;;;;;;;3.03;1.90;;;14.20;99.90;;;;;;4899022;29;20142;-82
2022/10/27 08:10:47;;;;;;;3.35;1.77;;;14.20;99.90;;;;;;4883748;29;20040;-81
2022/10/27 08:13:13;;;;;;;4.28;1.80;;;14.80;99.90;;;;;;4916211;29;20040;-81
2022/10/27 08:15:39;;;;;;;1.90;1.42;;;14.40;99.90;;;;;;4883038;29;20052;-81
2022/10/27 08:18:06;;;;;;;1.60;1.23;;;14.90;99.90;;;;;;4896260;29;20100;-81
2022/10/27 08:20:36;;;;;;;2.00;1.42;;;14.80;99.90;;;;;;4896275;29;20507;-81
2022/10/27 08:23:04;;;;;;;1.98;1.30;;;14.80;99.90;;;;;;4895437;29;20072;-81
2022/10/27 08:25:30;;;;;;;2.72;1.70;;;15.00;99.90;;;;;;4896057;29;20130;-81
2022/10/27 08:27:56;;;;;;;1.77;1.40;;;15.00;99.90;;;;;;4879966;29;20125;-82
2022/10/27 08:30:22;;;;;;;;;;;14.70;99.90;;;;;;4896354;29;20045;-81
2022/10/27 08:32:49;;;;;;;2.78;1.55;;;14.90;99.90;;;;;;4897929;29;20006;-81
2022/10/27 08:35:15;;;;;;;1.77;1.20;;;14.80;99.90;;;;;;4915054;29;20470;-82
2022/10/27 08:37:41;;;;;;;1.60;1.13;;;14.90;99.90;;;;;;4900266;29;20079;-82
2022/10/27 08:40:09;;;;;;;1.40;1.10;;;15.20;99.90;;;;;;4915404;29;20055;-82
2022/10/27 08:43:00;;;;;;;1.42;1.00;;;14.90;99.90;;;;;;4900324;29;20060;-83
2022/10/27 08:45:33;;;;;;;2.47;1.40;;;15.20;99.90;;;;;;4915209;29;20115;-82
2022/10/27 08:48:00;;;;;;;1.98;1.30;;;15.20;99.90;;;;;;4899897;29;20047;-82
2022/10/27 08:50:30;;;;;;;1.65;1.27;;;14.90;99.90;;;;;;4915160;29;20079;-82
2022/10/27 08:53:01;;;;;;;2.55;1.55;;;15.10;99.90;;;;;;4898915;29;20135;-81
2022/10/27 08:55:50;;;;;;;2.42;1.33;;;15.10;99.90;;;;;;4915063;29;20058;-82
2022/10/27 08:58:41;;;;;;;2.00;1.17;;;15.40;99.90;;;;;;4899544;29;20052;-82
2022/10/27 09:01:26;;;;;;;2.72;1.40;;;15.40;99.90;;;;;;4899401;29;20048;-82
2022/10/27 09:03:51;;;;;;;2.80;1.48;;;15.50;99.90;;;;;;4914007;29;20188;-75
2022/10/27 09:06:26;;;;;;;1.70;1.25;;;15.60;99.90;;;;;;4895790;29;20545;-75
2022/10/27 09:09:07;;;;;;;1.50;1.30;;;15.80;99.90;;;;;;4893981;29;20116;-75
2022/10/27 09:11:42;;;;;;;3.80;1.80;;;15.90;99.90;;;;;;4878810;29;20083;-75
2022/10/27 09:14:20;;;;;;;2.00;1.20;;;16.10;99.90;;;;;;4893785;29;20127;-75
2022/10/27 09:17:09;;;;;;;2.08;1.40;;;16.30;99.90;;;;;;4894317;29;20088;-75
2022/10/27 09:19:42;;;;;;;2.78;1.65;;;16.40;99.90;;;;;;4878308;29;20055;-75
2022/10/27 09:22:15;;;;;;;2.08;1.20;;;16.20;99.90;;;;;;4894137;29;20817;-75
2022/10/27 09:24:41;;;;;;;1.80;1.10;;;16.50;99.90;;;;;;4895167;29;20107;-74
2022/10/27 09:27:12;;;;;;;2.13;1.27;;;16.60;99.90;;;;;;4897113;29;20541;-74
2022/10/27 09:29:38;;;;;;;2.55;1.33;;;16.60;99.90;;;;;;4912752;29;20087;-74
2022/10/27 09:32:13;;;;;;;1.80;1.20;;;16.50;99.90;;;;;;4913072;29;20040;-74
2022/10/27 09:35:00;;;;;;;1.77;1.25;;;16.80;99.90;;;;;;4898079;29;20048;-74
2022/10/27 09:37:26;;;;;;;1.63;1.00;;;16.70;99.90;;;;;;4916563;29;20131;-74
2022/10/27 09:39:53;;;;;;;2.30;1.08;;;16.80;99.90;;;;;;4916125;29;20131;-74
2022/10/27 09:42:19;;;;;;;1.70;1.00;;;16.80;99.90;;;;;;4916195;29;20505;-74
2022/10/27 09:44:57;;;;;;;1.35;1.02;;;17.00;99.90;;;;;;4915775;29;20543;-74
2022/10/27 09:47:27;;;;;;;2.03;1.17;;;16.90;99.90;;;;;;4916293;29;20063;-75
2022/10/27 09:49:55;;;;;;;3.00;1.20;;;17.00;99.90;;;;;;4900012;29;20484;-75
2022/10/27 09:52:36;;;;;;;2.95;1.20;;;17.10;99.90;;;;;;4901124;29;20052;-75
2022/10/27 09:55:01;;;;;;;3.80;1.20;;;17.10;99.90;;;;;;4890063;29;20492;-75
2022/10/27 09:57:32;;;;;;;2.90;1.45;;;17.10;99.90;;;;;;4881660;29;20055;-75
2022/10/27 09:59:59;;;;;;;2.08;1.20;;;17.30;99.90;;;;;;4896886;29;20059;-75
2022/10/27 10:02:32;;;;;;;1.45;1.00;;;17.20;99.90;;;;;;4897223;29;20060;-75
2022/10/27 10:04:59;;;;;;;2.00;1.00;;;17.40;99.90;;;;;;4896831;29;20159;-75
2022/10/27 10:07:34;;;;;;;1.30;1.00;;;17.30;99.90;;;;;;4896599;29;20128;-74
2022/10/27 10:10:14;;;;;;;3.50;0.95;;;17.40;99.90;;;;;;4896797;29;20040;-75
2022/10/27 10:12:39;;;;;;;2.20;1.00;;;17.50;99.90;;;;;;4896565;29;20051;-75
2022/10/27 10:15:11;;;;;;;;;;;17.50;99.90;;;;;;4896782;29;20048;-75
2022/10/27 10:17:40;;;;;;;2.45;1.13;;;17.60;99.90;;;;;;4896724;29;19923;-74
2022/10/27 10:20:07;;;;;;;1.67;1.00;;;17.50;99.90;;;;;;4908398;29;20079;-74
2022/10/27 10:22:35;;;;;;;2.72;1.00;;;17.60;99.90;;;;;;4915228;29;20060;-74
2022/10/27 10:25:32;;;;;;;0.70;0.60;;;17.70;99.90;;;;;;4899529;29;20048;-74
2022/10/27 10:28:04;;;;;;;1.60;0.80;;;17.90;99.90;;;;;;4915614;29;20103;-75
2022/10/27 10:30:37;;;;;;;1.52;0.80;;;18.00;99.90;;;;;;4915446;29;20047;-75
2022/10/27 10:33:05;;;;;;;1.52;0.60;;;18.10;99.90;;;;;;4899478;29;20123;-75
2022/10/27 10:35:49;;;;;;;1.27;0.77;;;18.10;99.90;;;;;;4899799;29;20503;-75
2022/10/27 10:38:27;;;;;;;1.42;0.90;;;18.10;99.90;;;;;;4899356;29;20044;-74
2022/10/27 10:41:19;;;;;;;0.50;0.50;;;18.20;99.90;;;;;;4915372;29;20044;-75
2022/10/27 10:43:44;;;;;;;1.67;0.80;;;18.20;99.90;;;;;;4893932;29;20051;-75
2022/10/27 10:46:30;;;;;;;;;;;18.30;99.90;;;;;;4896126;29;20407;-75
2022/10/27 10:48:57;;;;;;;1.23;0.70;;;18.40;99.90;;;;;;4895691;29;20044;-75
2022/10/27 10:51:31;;;;;;;1.15;0.80;;;18.50;99.90;;;;;;4895937;29;20049;-74
2022/10/27 10:54:00;;;;;;;2.58;0.90;;;18.60;99.90;;;;;;4895834;29;20049;-75
2022/10/27 10:56:33;;;;;;;1.48;0.82;;;18.60;99.90;;;;;;4895811;29;20052;-73
2022/10/27 10:59:16;;;;;;;1.30;0.80;;;18.70;99.90;;;;;;4895586;29;20523;-73
2022/10/27 11:02:03;;;;;;;1.63;0.80;;;18.90;99.90;;;;;;4896039;29;20231;-74
2022/10/27 11:04:38;;;;;;;1.67;0.77;;;19.00;99.90;;;;;;4880105;29;20113;-73
2022/10/27 11:07:25;;;;;;;2.65;0.85;;;19.30;99.90;;;;;;4895570;29;20540;-74
2022/10/27 11:09:54;;;;;;;1.50;0.70;;;19.50;99.90;;;;;;4895489;29;20040;-74
2022/10/27 11:12:43;;;;;;;3.53;0.90;;;19.50;99.90;;;;;;4895548;29;20048;-75
2022/10/27 11:15:24;;;;;;;1.02;0.60;;;19.50;99.90;;;;;;4861684;29;20060;-73
2022/10/27 11:17:53;;;;;;;0.98;0.70;;;19.40;99.90;;;;;;4878004;29;20227;-73
2022/10/27 11:20:28;;;;;;;1.23;0.68;;;19.50;99.90;;;;;;4862274;29;20048;-74
2022/10/27 11:22:55;;;;;;;2.30;0.70;;;19.70;99.90;;;;;;4861604;29;20147;-74
2022/10/27 11:25:29;;;;;;;1.35;0.70;;;19.80;99.90;;;;;;4861427;29;20155;-74
2022/10/27 11:28:15;;;;;;;0.95;0.63;;;19.80;99.90;;;;;;4877290;29;20080;-74
2022/10/27 11:30:51;;;;;;;1.20;0.52;;;20.10;99.90;;;;;;4861701;29;20040;-74
2022/10/27 11:33:41;;;;;;;1.25;0.60;;;20.20;99.90;;;;;;4879391;29;20084;-75
2022/10/27 11:36:19;;;;;;;1.30;0.63;;;20.30;99.90;;;;;;4895474;29;20063;-75
2022/10/27 11:38:47;;;;;;;0.85;0.50;;;20.40;99.90;;;;;;4895386;29;20108;-74
2022/10/27 11:41:46;;;;;;;1.48;0.50;;;20.50;99.90;;;;;;4895147;29;20052;-74
2022/10/27 11:44:30;;;;;;;1.13;0.70;;;20.60;99.90;;;;;;4895237;29;20044;-74
2022/10/27 11:47:11;;;;;;;1.00;0.65;;;20.80;99.90;;;;;;4895098;29;20068;-74
2022/10/27 11:50:04;;;;;;;1.70;0.80;;;20.90;99.90;;;;;;4895407;29;20056;-75
2022/10/27 11:52:39;;;;;;;1.77;0.70;;;20.90;99.90;;;;;;4895134;29;20053;-75
2022/10/27 11:55:08;;;;;;;1.10;0.50;;;20.90;99.90;;;;;;4881372;29;20104;-80
2022/10/27 11:58:00;;;;;;;1.25;0.50;;;20.80;99.90;;;;;;4896401;29;20052;-81
2022/10/27 12:00:35;;;;;;;1.95;0.90;;;20.70;99.90;;;;;;4881146;29;20052;-81
2022/10/27 12:03:16;;;;;;;0.85;0.50;;;20.80;99.90;;;;;;4897251;29;20060;-81
2022/10/27 12:06:04;;;;;;;1.52;0.65;;;21.00;99.90;;;;;;4896025;29;20052;-82
2022/10/27 12:08:48;;;;;;;1.63;0.75;;;21.10;99.90;;;;;;4909961;29;20048;-81
2022/10/27 12:11:30;;;;;;;1.05;0.60;;;21.20;99.90;;;;;;4914832;29;20176;-81
2022/10/27 12:14:04;;;;;;;0.98;0.50;;;21.20;99.90;;;;;;4898749;29;20059;-80
2022/10/27 12:17:07;;;;;;;1.30;0.60;;;21.00;99.90;;;;;;4914357;29;20044;-80
2022/10/27 12:19:42;;;;;;;1.20;0.70;;;20.90;99.90;;;;;;4914701;29;20048;-80
2022/10/27 12:22:12;;;;;;;2.78;0.70;;;21.00;99.90;;;;;;4914720;29;20064;-80
2022/10/27 12:24:59;;;;;;;1.02;0.60;;;21.10;99.90;;;;;;4899564;29;20057;-80
2022/10/27 12:27:40;;;;;;;1.52;0.60;;;21.30;99.90;;;;;;4896003;29;20057;-82
2022/10/27 12:30:13;;;;;;;1.58;0.63;;;21.50;99.90;;;;;;4880130;29;20051;-81
2022/10/27 12:32:41;;;;;;;1.65;0.50;;;21.60;99.90;;;;;;4895579;29;20107;-81
2022/10/27 12:35:22;;;;;;;1.65;0.60;;;21.60;99.90;;;;;;4895372;29;20052;-80
2022/10/27 12:38:03;;;;;;;0.82;0.40;;;21.30;99.90;;;;;;4895305;29;20131;-82
2022/10/27 12:40:37;;;;;;;1.20;0.50;;;21.20;99.90;;;;;;4895556;29;20461;-81
2022/10/27 12:43:03;;;;;;;0.93;0.60;;;21.20;99.90;;;;;;4895845;29;20071;-81
2022/10/27 12:46:11;;;;;;;1.23;0.68;;;21.30;99.90;;;;;;4895311;29;20488;-82
2022/10/27 12:48:54;;;;;;;1.17;0.55;;;21.40;99.90;;;;;;4896085;29;20044;-81
2022/10/27 12:51:27;;;;;;;2.40;0.60;;;21.50;99.90;;;;;;4895824;29;20096;-81
2022/10/27 12:54:05;;;;;;;1.58;0.57;;;21.60;99.90;;;;;;4896029;29;20144;-81
2022/10/27 12:57:03;;;;;;;1.38;0.55;;;21.60;99.90;;;;;;4896145;29;20044;-81
2022/10/27 12:59:39;;;;;;;0.65;0.40;;;21.50;99.90;;;;;;4868994;29;20052;-81
2022/10/27 13:02:09;;;;;;;;;;;21.30;99.90;;;;;;4906259;29;20076;-80
2022/10/27 13:04:46;;;;;;;1.67;0.80;;;21.20;99.90;;;;;;4914640;29;19967;-81
2022/10/27 13:07:34;;;;;;;1.33;0.50;;;21.00;99.90;;;;;;4915642;29;20143;-81